sensor_id;sensor_type;location;lat;lon;timestamp;pressure;altitude;pressure_sealevel;temperature;humidity
61478;BME280;47345;52.334;10.392;2024-03-08T00:00:37;101517.80;;;1.30;71.62
61478;BME280;47345;52.334;10.392;2024-03-08T00:03:10;101514.45;;;1.27;71.89
61478;BME280;47345;52.334;10.392;2024-03-08T00:05:40;101514.96;;;1.25;72.13
61478;BME280;47345;52.334;10.392;2024-03-08T00:08:11;101516.97;;;1.20;72.09
61478;BME280;47345;52.334;10.392;2024-03-08T00:10:42;101517.74;;;1.15;72.17
61478;BME280;47345;52.334;10.392;2024-03-08T00:13:13;101513.56;;;1.09;72.48
61478;BME280;47345;52.334;10.392;2024-03-08T00:15:43;101510.36;;;1.04;72.59
61478;BME280;47345;52.334;10.392;2024-03-08T00:18:14;101507.36;;;1.01;73.00
61478;BME280;47345;52.334;10.392;2024-03-08T00:20:45;101508.44;;;0.99;73.12
61478;BME280;47345;52.334;10.392;2024-03-08T00:23:15;101504.70;;;0.97;73.04
61478;BME280;47345;52.334;10.392;2024-03-08T00:25:46;101505.64;;;0.94;73.02
61478;BME280;47345;52.334;10.392;2024-03-08T00:28:16;101503.52;;;0.91;73.10
61478;BME280;47345;52.334;10.392;2024-03-08T00:30:47;101505.73;;;0.91;73.11
61478;BME280;47345;52.334;10.392;2024-03-08T00:33:17;101503.28;;;0.87;73.07
61478;BME280;47345;52.334;10.392;2024-03-08T00:35:48;101504.96;;;0.84;73.10
61478;BME280;47345;52.334;10.392;2024-03-08T00:38:19;101505.71;;;0.82;73.20
61478;BME280;47345;52.334;10.392;2024-03-08T00:40:49;101504.51;;;0.79;73.28
61478;BME280;47345;52.334;10.392;2024-03-08T00:43:20;101508.38;;;0.78;73.39
61478;BME280;47345;52.334;10.392;2024-03-08T00:45:50;101502.27;;;0.76;73.44
61478;BME280;47345;52.334;10.392;2024-03-08T00:48:21;101501.43;;;0.75;73.57
61478;BME280;47345;52.334;10.392;2024-03-08T00:50:51;101500.23;;;0.74;73.66
61478;BME280;47345;52.334;10.392;2024-03-08T00:53:22;101498.06;;;0.72;73.58
61478;BME280;47345;52.334;10.392;2024-03-08T00:55:52;101495.85;;;0.70;73.80
61478;BME280;47345;52.334;10.392;2024-03-08T00:58:24;101495.32;;;0.70;73.80
61478;BME280;47345;52.334;10.392;2024-03-08T01:00:54;101496.64;;;0.69;73.84
61478;BME280;47345;52.334;10.392;2024-03-08T01:03:26;101495.43;;;0.69;73.90
61478;BME280;47345;52.334;10.392;2024-03-08T01:05:56;101489.13;;;0.69;74.09
61478;BME280;47345;52.334;10.392;2024-03-08T01:08:29;101491.64;;;0.69;74.06
61478;BME280;47345;52.334;10.392;2024-03-08T01:10:59;101486.54;;;0.70;74.03
61478;BME280;47345;52.334;10.392;2024-03-08T01:13:30;101485.33;;;0.69;74.09
61478;BME280;47345;52.334;10.392;2024-03-08T01:16:00;101486.25;;;0.69;74.16
61478;BME280;47345;52.334;10.392;2024-03-08T01:18:30;101485.64;;;0.68;74.18
61478;BME280;47345;52.334;10.392;2024-03-08T01:21:01;101479.40;;;0.67;74.41
61478;BME280;47345;52.334;10.392;2024-03-08T01:23:32;101473.34;;;0.67;74.32
61478;BME280;47345;52.334;10.392;2024-03-08T01:26:04;101469.36;;;0.67;74.53
61478;BME280;47345;52.334;10.392;2024-03-08T01:28:36;101467.42;;;0.67;74.35
61478;BME280;47345;52.334;10.392;2024-03-08T01:31:06;101459.45;;;0.65;74.50
61478;BME280;47345;52.334;10.392;2024-03-08T01:33:36;101455.12;;;0.66;74.56
61478;BME280;47345;52.334;10.392;2024-03-08T01:36:08;101453.02;;;0.65;74.59
61478;BME280;47345;52.334;10.392;2024-03-08T01:38:39;101450.45;;;0.63;74.65
61478;BME280;47345;52.334;10.392;2024-03-08T01:41:09;101445.27;;;0.61;74.66
61478;BME280;47345;52.334;10.392;2024-03-08T01:43:42;101446.64;;;0.62;74.83
61478;BME280;47345;52.334;10.392;2024-03-08T01:46:13;101440.63;;;0.63;74.83
61478;BME280;47345;52.334;10.392;2024-03-08T01:48:45;101441.89;;;0.63;74.93
61478;BME280;47345;52.334;10.392;2024-03-08T01:51:16;101438.06;;;0.61;74.86
61478;BME280;47345;52.334;10.392;2024-03-08T01:53:48;101434.39;;;0.60;74.96
61478;BME280;47345;52.334;10.392;2024-03-08T01:56:19;101429.25;;;0.59;74.99
61478;BME280;47345;52.334;10.392;2024-03-08T01:58:49;101422.38;;;0.57;74.97
61478;BME280;47345;52.334;10.392;2024-03-08T02:01:19;101419.63;;;0.56;74.97
61478;BME280;47345;52.334;10.392;2024-03-08T02:03:50;101415.65;;;0.56;75.27
61478;BME280;47345;52.334;10.392;2024-03-08T02:06:21;101410.87;;;0.58;75.49
61478;BME280;47345;52.334;10.392;2024-03-08T02:08:51;101409.55;;;0.58;75.49
61478;BME280;47345;52.334;10.392;2024-03-08T02:11:22;101407.22;;;0.58;75.46
61478;BME280;47345;52.334;10.392;2024-03-08T02:13:53;101404.97;;;0.57;75.47
61478;BME280;47345;52.334;10.392;2024-03-08T02:16:24;101402.70;;;0.57;75.51
61478;BME280;47345;52.334;10.392;2024-03-08T02:18:54;101400.52;;;0.55;75.44
61478;BME280;47345;52.334;10.392;2024-03-08T02:21:26;101397.17;;;0.50;75.42
61478;BME280;47345;52.334;10.392;2024-03-08T02:23:56;101393.36;;;0.46;75.72
61478;BME280;47345;52.334;10.392;2024-03-08T02:26:27;101393.80;;;0.42;75.75
61478;BME280;47345;52.334;10.392;2024-03-08T02:28:57;101391.12;;;0.38;76.07
61478;BME280;47345;52.334;10.392;2024-03-08T02:31:28;101384.80;;;0.34;76.40
61478;BME280;47345;52.334;10.392;2024-03-08T02:33:58;101380.77;;;0.28;76.24
61478;BME280;47345;52.334;10.392;2024-03-08T02:36:29;101376.37;;;0.23;76.44
61478;BME280;47345;52.334;10.392;2024-03-08T02:39:04;101375.98;;;0.19;76.46
61478;BME280;47345;52.334;10.392;2024-03-08T02:41:35;101374.73;;;0.14;76.48
61478;BME280;47345;52.334;10.392;2024-03-08T02:44:06;101370.70;;;0.08;76.25
61478;BME280;47345;52.334;10.392;2024-03-08T02:46:37;101373.23;;;0.01;76.34
61478;BME280;47345;52.334;10.392;2024-03-08T02:49:08;101374.15;;;-0.06;76.33
61478;BME280;47345;52.334;10.392;2024-03-08T02:51:39;101371.94;;;-0.12;76.78
61478;BME280;47345;52.334;10.392;2024-03-08T02:54:09;101373.69;;;-0.16;77.01
61478;BME280;47345;52.334;10.392;2024-03-08T02:56:40;101377.75;;;-0.22;77.19
61478;BME280;47345;52.334;10.392;2024-03-08T02:59:11;101375.71;;;-0.28;77.21
61478;BME280;47345;52.334;10.392;2024-03-08T03:01:41;101379.41;;;-0.32;77.64
61478;BME280;47345;52.334;10.392;2024-03-08T03:04:12;101376.51;;;-0.34;77.99
61478;BME280;47345;52.334;10.392;2024-03-08T03:06:42;101378.79;;;-0.36;78.03
61478;BME280;47345;52.334;10.392;2024-03-08T03:09:13;101378.05;;;-0.35;78.12
61478;BME280;47345;52.334;10.392;2024-03-08T03:11:46;101375.08;;;-0.36;78.25
61478;BME280;47345;52.334;10.392;2024-03-08T03:14:17;101373.80;;;-0.38;78.27
61478;BME280;47345;52.334;10.392;2024-03-08T03:16:48;101371.59;;;-0.40;78.45
61478;BME280;47345;52.334;10.392;2024-03-08T03:19:19;101368.27;;;-0.41;78.59
61478;BME280;47345;52.334;10.392;2024-03-08T03:21:49;101367.36;;;-0.43;78.45
61478;BME280;47345;52.334;10.392;2024-03-08T03:24:21;101365.07;;;-0.46;78.44
61478;BME280;47345;52.334;10.392;2024-03-08T03:26:52;101359.94;;;-0.49;78.43
61478;BME280;47345;52.334;10.392;2024-03-08T03:29:24;101360.48;;;-0.51;78.72
61478;BME280;47345;52.334;10.392;2024-03-08T03:31:54;101360.60;;;-0.53;78.75
61478;BME280;47345;52.334;10.392;2024-03-08T03:34:24;101358.99;;;-0.55;79.08
61478;BME280;47345;52.334;10.392;2024-03-08T03:36:55;101356.51;;;-0.57;78.99
61478;BME280;47345;52.334;10.392;2024-03-08T03:39:26;101357.30;;;-0.59;79.17
61478;BME280;47345;52.334;10.392;2024-03-08T03:42:00;101354.90;;;-0.60;79.25
61478;BME280;47345;52.334;10.392;2024-03-08T03:44:31;101355.78;;;-0.63;79.21
61478;BME280;47345;52.334;10.392;2024-03-08T03:47:01;101352.77;;;-0.65;79.26
61478;BME280;47345;52.334;10.392;2024-03-08T03:49:32;101352.23;;;-0.67;79.24
61478;BME280;47345;52.334;10.392;2024-03-08T03:52:05;101348.59;;;-0.69;79.31
61478;BME280;47345;52.334;10.392;2024-03-08T03:54:36;101346.42;;;-0.71;79.34
61478;BME280;47345;52.334;10.392;2024-03-08T03:57:07;101348.38;;;-0.73;79.62
61478;BME280;47345;52.334;10.392;2024-03-08T03:59:37;101348.15;;;-0.75;79.59
61478;BME280;47345;52.334;10.392;2024-03-08T04:02:09;101341.17;;;-0.80;79.45
61478;BME280;47345;52.334;10.392;2024-03-08T04:04:39;101344.16;;;-0.79;79.55
61478;BME280;47345;52.334;10.392;2024-03-08T04:07:11;101339.58;;;-0.80;79.65
61478;BME280;47345;52.334;10.392;2024-03-08T04:09:41;101336.95;;;-0.81;79.74
61478;BME280;47345;52.334;10.392;2024-03-08T04:12:11;101333.34;;;-0.80;79.64
61478;BME280;47345;52.334;10.392;2024-03-08T04:14:44;101334.61;;;-0.81;79.57
61478;BME280;47345;52.334;10.392;2024-03-08T04:17:15;101328.54;;;-0.83;79.85
61478;BME280;47345;52.334;10.392;2024-03-08T04:19:47;101332.95;;;-0.85;79.71
61478;BME280;47345;52.334;10.392;2024-03-08T04:22:18;101335.16;;;-0.85;79.72
61478;BME280;47345;52.334;10.392;2024-03-08T04:24:48;101331.55;;;-0.88;79.72
61478;BME280;47345;52.334;10.392;2024-03-08T04:27:20;101334.16;;;-0.89;79.80
61478;BME280;47345;52.334;10.392;2024-03-08T04:29:50;101333.71;;;-0.90;79.96
61478;BME280;47345;52.334;10.392;2024-03-08T04:32:20;101334.39;;;-0.90;79.99
61478;BME280;47345;52.334;10.392;2024-03-08T04:34:51;101330.23;;;-0.89;80.17
61478;BME280;47345;52.334;10.392;2024-03-08T04:37:22;101333.04;;;-0.88;80.04
61478;BME280;47345;52.334;10.392;2024-03-08T04:39:52;101337.48;;;-0.88;80.00
61478;BME280;47345;52.334;10.392;2024-03-08T04:42:22;101339.98;;;-0.88;80.14
61478;BME280;47345;52.334;10.392;2024-03-08T04:44:54;101336.89;;;-0.87;80.12
61478;BME280;47345;52.334;10.392;2024-03-08T04:47:24;101332.51;;;-0.86;80.07
61478;BME280;47345;52.334;10.392;2024-03-08T04:49:55;101331.61;;;-0.86;80.14
61478;BME280;47345;52.334;10.392;2024-03-08T04:52:27;101332.57;;;-0.84;80.25
61478;BME280;47345;52.334;10.392;2024-03-08T04:54:57;101328.57;;;-0.84;80.30
61478;BME280;47345;52.334;10.392;2024-03-08T04:57:28;101321.45;;;-0.84;80.37
61478;BME280;47345;52.334;10.392;2024-03-08T04:59:58;101322.05;;;-0.83;80.08
61478;BME280;47345;52.334;10.392;2024-03-08T05:02:29;101318.70;;;-0.83;80.12
61478;BME280;47345;52.334;10.392;2024-03-08T05:05:00;101318.90;;;-0.83;80.15
61478;BME280;47345;52.334;10.392;2024-03-08T05:07:31;101322.27;;;-0.83;80.17
61478;BME280;47345;52.334;10.392;2024-03-08T05:10:02;101327.45;;;-0.83;80.13
61478;BME280;47345;52.334;10.392;2024-03-08T05:12:33;101322.84;;;-0.84;79.91
61478;BME280;47345;52.334;10.392;2024-03-08T05:15:05;101322.16;;;-0.84;80.09
61478;BME280;47345;52.334;10.392;2024-03-08T05:17:36;101320.62;;;-0.85;80.15
61478;BME280;47345;52.334;10.392;2024-03-08T05:20:10;101324.55;;;-0.85;80.17
61478;BME280;47345;52.334;10.392;2024-03-08T05:22:42;101329.46;;;-0.84;80.24
61478;BME280;47345;52.334;10.392;2024-03-08T05:25:13;101326.92;;;-0.83;80.21
61478;BME280;47345;52.334;10.392;2024-03-08T05:27:43;101329.23;;;-0.83;80.15
61478;BME280;47345;52.334;10.392;2024-03-08T05:30:14;101328.27;;;-0.82;80.30
61478;BME280;47345;52.334;10.392;2024-03-08T05:32:45;101324.30;;;-0.82;80.06
61478;BME280;47345;52.334;10.392;2024-03-08T05:35:15;101324.39;;;-0.81;80.22
61478;BME280;47345;52.334;10.392;2024-03-08T05:37:46;101324.59;;;-0.79;80.06
61478;BME280;47345;52.334;10.392;2024-03-08T05:40:17;101323.98;;;-0.77;80.27
61478;BME280;47345;52.334;10.392;2024-03-08T05:42:51;101319.94;;;-0.77;80.24
61478;BME280;47345;52.334;10.392;2024-03-08T05:45:22;101322.23;;;-0.76;80.17
61478;BME280;47345;52.334;10.392;2024-03-08T05:47:54;101321.52;;;-0.74;80.26
61478;BME280;47345;52.334;10.392;2024-03-08T05:50:25;101322.69;;;-0.72;80.14
61478;BME280;47345;52.334;10.392;2024-03-08T05:52:56;101322.90;;;-0.70;80.11
61478;BME280;47345;52.334;10.392;2024-03-08T05:55:27;101320.21;;;-0.70;79.97
61478;BME280;47345;52.334;10.392;2024-03-08T05:57:59;101318.79;;;-0.70;79.85
61478;BME280;47345;52.334;10.392;2024-03-08T06:00:30;101321.98;;;-0.70;79.95
61478;BME280;47345;52.334;10.392;2024-03-08T06:03:01;101317.45;;;-0.70;79.99
61478;BME280;47345;52.334;10.392;2024-03-08T06:05:32;101316.63;;;-0.68;79.73
61478;BME280;47345;52.334;10.392;2024-03-08T06:08:03;101317.59;;;-0.67;79.80
61478;BME280;47345;52.334;10.392;2024-03-08T06:10:34;101315.56;;;-0.64;79.92
61478;BME280;47345;52.334;10.392;2024-03-08T06:13:05;101320.36;;;-0.61;79.77
61478;BME280;47345;52.334;10.392;2024-03-08T06:15:35;101321.90;;;-0.57;79.73
61478;BME280;47345;52.334;10.392;2024-03-08T06:18:06;101324.41;;;-0.53;79.79
61478;BME280;47345;52.334;10.392;2024-03-08T06:20:40;101323.88;;;-0.49;79.68
61478;BME280;47345;52.334;10.392;2024-03-08T06:23:12;101320.88;;;-0.45;79.63
61478;BME280;47345;52.334;10.392;2024-03-08T06:25:46;101319.28;;;-0.40;79.53
61478;BME280;47345;52.334;10.392;2024-03-08T06:28:17;101323.32;;;-0.37;79.37
61478;BME280;47345;52.334;10.392;2024-03-08T06:30:47;101323.36;;;-0.33;79.45
61478;BME280;47345;52.334;10.392;2024-03-08T06:33:20;101321.54;;;-0.27;79.38
61478;BME280;47345;52.334;10.392;2024-03-08T06:35:50;101321.06;;;-0.24;79.27
61478;BME280;47345;52.334;10.392;2024-03-08T06:38:21;101320.27;;;-0.21;79.06
61478;BME280;47345;52.334;10.392;2024-03-08T06:40:54;101320.74;;;-0.15;79.10
61478;BME280;47345;52.334;10.392;2024-03-08T06:43:25;101321.80;;;-0.10;78.96
61478;BME280;47345;52.334;10.392;2024-03-08T06:46:02;101320.66;;;-0.03;78.94
61478;BME280;47345;52.334;10.392;2024-03-08T06:48:33;101316.73;;;0.03;78.87
61478;BME280;47345;52.334;10.392;2024-03-08T06:51:05;101314.95;;;0.10;78.74
61478;BME280;47345;52.334;10.392;2024-03-08T06:53:36;101313.15;;;0.17;78.76
61478;BME280;47345;52.334;10.392;2024-03-08T06:56:07;101315.73;;;0.25;78.39
61478;BME280;47345;52.334;10.392;2024-03-08T06:58:38;101315.69;;;0.30;78.21
61478;BME280;47345;52.334;10.392;2024-03-08T07:01:09;101315.02;;;0.36;78.20
61478;BME280;47345;52.334;10.392;2024-03-08T07:03:44;101316.28;;;0.42;78.05
61478;BME280;47345;52.334;10.392;2024-03-08T07:06:14;101316.82;;;0.49;77.90
61478;BME280;47345;52.334;10.392;2024-03-08T07:08:48;101316.58;;;0.56;77.81
61478;BME280;47345;52.334;10.392;2024-03-08T07:11:21;101320.25;;;0.64;77.54
61478;BME280;47345;52.334;10.392;2024-03-08T07:13:51;101318.03;;;0.71;77.63
61478;BME280;47345;52.334;10.392;2024-03-08T07:16:23;101318.27;;;0.81;77.45
61478;BME280;47345;52.334;10.392;2024-03-08T07:18:53;101316.33;;;0.90;76.99
61478;BME280;47345;52.334;10.392;2024-03-08T07:21:24;101314.48;;;0.97;76.75
61478;BME280;47345;52.334;10.392;2024-03-08T07:23:55;101317.19;;;1.05;76.78
61478;BME280;47345;52.334;10.392;2024-03-08T07:26:42;101313.34;;;1.14;76.65
61478;BME280;47345;52.334;10.392;2024-03-08T07:29:13;101312.39;;;1.21;76.54
61478;BME280;47345;52.334;10.392;2024-03-08T07:31:44;101312.79;;;1.29;76.20
61478;BME280;47345;52.334;10.392;2024-03-08T07:34:20;101309.52;;;1.38;76.27
61478;BME280;47345;52.334;10.392;2024-03-08T07:36:50;101302.95;;;1.45;75.71
61478;BME280;47345;52.334;10.392;2024-03-08T07:39:21;101304.88;;;1.55;75.83
61478;BME280;47345;52.334;10.392;2024-03-08T07:41:53;101304.02;;;1.65;75.66
61478;BME280;47345;52.334;10.392;2024-03-08T07:44:23;101299.20;;;1.70;75.13
61478;BME280;47345;52.334;10.392;2024-03-08T07:46:54;101294.48;;;1.81;75.02
61478;BME280;47345;52.334;10.392;2024-03-08T07:49:26;101292.92;;;1.91;74.82
61478;BME280;47345;52.334;10.392;2024-03-08T07:51:56;101292.09;;;2.00;74.61
61478;BME280;47345;52.334;10.392;2024-03-08T07:54:27;101291.21;;;2.10;74.61
61478;BME280;47345;52.334;10.392;2024-03-08T07:56:57;101291.66;;;2.21;75.10
61478;BME280;47345;52.334;10.392;2024-03-08T07:59:28;101287.70;;;2.33;74.42
61478;BME280;47345;52.334;10.392;2024-03-08T08:01:58;101282.55;;;2.42;74.37
61478;BME280;47345;52.334;10.392;2024-03-08T08:04:30;101284.49;;;2.53;74.25
61478;BME280;47345;52.334;10.392;2024-03-08T08:07:00;101280.73;;;2.64;73.89
61478;BME280;47345;52.334;10.392;2024-03-08T08:09:30;101281.23;;;2.74;73.49
61478;BME280;47345;52.334;10.392;2024-03-08T08:12:04;101279.90;;;2.83;72.87
61478;BME280;47345;52.334;10.392;2024-03-08T08:14:36;101273.92;;;2.91;72.57
61478;BME280;47345;52.334;10.392;2024-03-08T08:17:06;101272.73;;;3.00;72.60
61478;BME280;47345;52.334;10.392;2024-03-08T08:19:37;101272.68;;;3.08;71.99
61478;BME280;47345;52.334;10.392;2024-03-08T08:22:08;101271.98;;;3.18;72.21
61478;BME280;47345;52.334;10.392;2024-03-08T08:24:39;101271.98;;;3.28;71.54
61478;BME280;47345;52.334;10.392;2024-03-08T08:27:09;101266.74;;;3.35;71.12
61478;BME280;47345;52.334;10.392;2024-03-08T08:29:41;101267.61;;;3.43;70.99
61478;BME280;47345;52.334;10.392;2024-03-08T08:32:12;101267.80;;;3.51;70.83
61478;BME280;47345;52.334;10.392;2024-03-08T08:34:43;101263.66;;;3.58;70.55
61478;BME280;47345;52.334;10.392;2024-03-08T08:37:14;101259.92;;;3.67;70.62
61478;BME280;47345;52.334;10.392;2024-03-08T08:39:48;101256.92;;;3.77;70.47
61478;BME280;47345;52.334;10.392;2024-03-08T08:42:20;101256.05;;;3.83;69.63
61478;BME280;47345;52.334;10.392;2024-03-08T08:44:51;101256.59;;;3.89;69.89
61478;BME280;47345;52.334;10.392;2024-03-08T08:47:23;101248.91;;;3.91;69.17
61478;BME280;47345;52.334;10.392;2024-03-08T08:49:53;101249.69;;;3.96;69.14
61478;BME280;47345;52.334;10.392;2024-03-08T08:52:23;101248.41;;;4.04;69.22
61478;BME280;47345;52.334;10.392;2024-03-08T08:54:54;101246.65;;;4.12;69.21
61478;BME280;47345;52.334;10.392;2024-03-08T08:57:25;101242.36;;;4.23;69.34
61478;BME280;47345;52.334;10.392;2024-03-08T08:59:56;101240.95;;;4.32;68.89
61478;BME280;47345;52.334;10.392;2024-03-08T09:02:26;101236.59;;;4.41;68.50
61478;BME280;47345;52.334;10.392;2024-03-08T09:04:57;101233.56;;;4.48;67.97
61478;BME280;47345;52.334;10.392;2024-03-08T09:07:28;101232.27;;;4.59;67.95
61478;BME280;47345;52.334;10.392;2024-03-08T09:09:59;101229.14;;;4.65;67.28
61478;BME280;47345;52.334;10.392;2024-03-08T09:12:36;101222.41;;;4.71;67.19
61478;BME280;47345;52.334;10.392;2024-03-08T09:15:09;101217.46;;;4.79;66.90
61478;BME280;47345;52.334;10.392;2024-03-08T09:17:41;101216.13;;;4.86;66.97
61478;BME280;47345;52.334;10.392;2024-03-08T09:20:13;101212.64;;;4.96;66.54
61478;BME280;47345;52.334;10.392;2024-03-08T09:22:46;101209.79;;;5.01;65.91
61478;BME280;47345;52.334;10.392;2024-03-08T09:25:16;101206.61;;;5.07;66.07
61478;BME280;47345;52.334;10.392;2024-03-08T09:27:47;101205.57;;;5.14;65.38
61478;BME280;47345;52.334;10.392;2024-03-08T09:30:18;101202.16;;;5.22;65.88
61478;BME280;47345;52.334;10.392;2024-03-08T09:32:50;101199.67;;;5.34;66.04
61478;BME280;47345;52.334;10.392;2024-03-08T09:35:22;101192.66;;;5.47;65.78
61478;BME280;47345;52.334;10.392;2024-03-08T09:37:52;101187.41;;;5.59;65.26
61478;BME280;47345;52.334;10.392;2024-03-08T09:40:23;101178.92;;;5.66;64.63
61478;BME280;47345;52.334;10.392;2024-03-08T09:42:55;101176.46;;;5.72;64.86
61478;BME280;47345;52.334;10.392;2024-03-08T09:45:27;101168.02;;;5.81;64.10
61478;BME280;47345;52.334;10.392;2024-03-08T09:47:59;101165.13;;;5.85;63.59
61478;BME280;47345;52.334;10.392;2024-03-08T09:50:30;101160.66;;;5.88;63.14
61478;BME280;47345;52.334;10.392;2024-03-08T09:53:02;101153.30;;;5.91;63.59
61478;BME280;47345;52.334;10.392;2024-03-08T09:55:32;101149.77;;;6.00;63.72
61478;BME280;47345;52.334;10.392;2024-03-08T09:58:07;101145.52;;;6.08;63.15
61478;BME280;47345;52.334;10.392;2024-03-08T10:00:55;101141.73;;;6.16;62.74
61478;BME280;47345;52.334;10.392;2024-03-08T10:03:26;101140.43;;;6.18;62.33
61478;BME280;47345;52.334;10.392;2024-03-08T10:05:57;101135.15;;;6.22;62.53
61478;BME280;47345;52.334;10.392;2024-03-08T10:08:29;101135.34;;;6.30;62.34
61478;BME280;47345;52.334;10.392;2024-03-08T10:11:00;101135.51;;;6.35;62.27
61478;BME280;47345;52.334;10.392;2024-03-08T10:13:31;101126.79;;;6.40;61.96
61478;BME280;47345;52.334;10.392;2024-03-08T10:16:03;101122.13;;;6.46;61.70
61478;BME280;47345;52.334;10.392;2024-03-08T10:18:34;101119.27;;;6.58;62.28
61478;BME280;47345;52.334;10.392;2024-03-08T10:21:06;101118.34;;;6.69;61.81
61478;BME280;47345;52.334;10.392;2024-03-08T10:23:39;101117.72;;;6.73;61.44
61478;BME280;47345;52.334;10.392;2024-03-08T10:26:13;101115.40;;;6.78;61.91
61478;BME280;47345;52.334;10.392;2024-03-08T10:28:45;101116.79;;;6.90;61.85
61478;BME280;47345;52.334;10.392;2024-03-08T10:31:18;101112.98;;;6.98;61.52
61478;BME280;47345;52.334;10.392;2024-03-08T10:33:49;101113.84;;;7.09;61.59
61478;BME280;47345;52.334;10.392;2024-03-08T10:36:19;101110.92;;;7.18;60.77
61478;BME280;47345;52.334;10.392;2024-03-08T10:38:53;101108.83;;;7.25;60.83
61478;BME280;47345;52.334;10.392;2024-03-08T10:41:24;101108.18;;;7.32;60.49
61478;BME280;47345;52.334;10.392;2024-03-08T10:44:13;101107.77;;;7.42;60.59
61478;BME280;47345;52.334;10.392;2024-03-08T10:46:58;101102.14;;;7.56;60.82
61478;BME280;47345;52.334;10.392;2024-03-08T10:49:37;101097.11;;;7.67;59.88
61478;BME280;47345;52.334;10.392;2024-03-08T10:52:10;101096.81;;;7.71;59.15
61478;BME280;47345;52.334;10.392;2024-03-08T10:54:43;101095.61;;;7.78;59.47
61478;BME280;47345;52.334;10.392;2024-03-08T10:57:17;101091.46;;;7.85;58.79
61478;BME280;47345;52.334;10.392;2024-03-08T10:59:48;101088.92;;;7.86;58.19
61478;BME280;47345;52.334;10.392;2024-03-08T11:02:20;101088.38;;;7.87;58.16
61478;BME280;47345;52.334;10.392;2024-03-08T11:04:52;101077.27;;;7.91;57.90
61478;BME280;47345;52.334;10.392;2024-03-08T11:07:26;101073.55;;;7.93;57.85
61478;BME280;47345;52.334;10.392;2024-03-08T11:09:58;101072.27;;;7.96;57.67
61478;BME280;47345;52.334;10.392;2024-03-08T11:12:31;101060.23;;;7.93;57.59
61478;BME280;47345;52.334;10.392;2024-03-08T11:15:11;101055.98;;;8.01;57.18
61478;BME280;47345;52.334;10.392;2024-03-08T11:17:46;101053.86;;;8.02;57.28
61478;BME280;47345;52.334;10.392;2024-03-08T11:20:19;101049.59;;;8.07;57.51
61478;BME280;47345;52.334;10.392;2024-03-08T11:22:52;101047.00;;;8.12;57.23
61478;BME280;47345;52.334;10.392;2024-03-08T11:25:37;101044.80;;;8.15;57.26
61478;BME280;47345;52.334;10.392;2024-03-08T11:28:15;101040.71;;;8.19;57.44
61478;BME280;47345;52.334;10.392;2024-03-08T11:31:25;101038.77;;;8.23;57.01
61478;BME280;47345;52.334;10.392;2024-03-08T11:33:57;101029.65;;;8.25;56.89
61478;BME280;47345;52.334;10.392;2024-03-08T11:36:28;101019.02;;;8.25;56.70
61478;BME280;47345;52.334;10.392;2024-03-08T11:39:01;101022.93;;;8.29;56.91
61478;BME280;47345;52.334;10.392;2024-03-08T11:41:39;101021.20;;;8.34;56.55
61478;BME280;47345;52.334;10.392;2024-03-08T11:44:11;101014.54;;;8.39;56.83
61478;BME280;47345;52.334;10.392;2024-03-08T11:46:45;101016.10;;;8.46;56.71
61478;BME280;47345;52.334;10.392;2024-03-08T11:49:17;101009.57;;;8.49;56.50
61478;BME280;47345;52.334;10.392;2024-03-08T11:51:49;101011.34;;;8.52;57.08
61478;BME280;47345;52.334;10.392;2024-03-08T11:54:21;101004.77;;;8.62;57.60
61478;BME280;47345;52.334;10.392;2024-03-08T11:56:54;101000.33;;;8.68;56.36
61478;BME280;47345;52.334;10.392;2024-03-08T11:59:24;100995.57;;;8.73;55.66
61478;BME280;47345;52.334;10.392;2024-03-08T12:02:03;100994.33;;;8.74;55.42
61478;BME280;47345;52.334;10.392;2024-03-08T12:04:34;100998.06;;;8.78;55.51
61478;BME280;47345;52.334;10.392;2024-03-08T12:07:05;100988.59;;;8.84;54.74
61478;BME280;47345;52.334;10.392;2024-03-08T12:09:41;100983.56;;;8.88;54.76
61478;BME280;47345;52.334;10.392;2024-03-08T12:12:15;100973.99;;;8.92;54.00
61478;BME280;47345;52.334;10.392;2024-03-08T12:14:46;100968.17;;;8.93;53.60
61478;BME280;47345;52.334;10.392;2024-03-08T12:17:16;100955.52;;;8.94;53.30
61478;BME280;47345;52.334;10.392;2024-03-08T12:19:49;100961.46;;;8.93;53.24
61478;BME280;47345;52.334;10.392;2024-03-08T12:22:19;100956.08;;;8.92;53.51
61478;BME280;47345;52.334;10.392;2024-03-08T12:25:06;100944.68;;;8.96;53.58
61478;BME280;47345;52.334;10.392;2024-03-08T12:27:40;100940.01;;;9.00;53.40
61478;BME280;47345;52.334;10.392;2024-03-08T12:30:23;100939.69;;;9.03;52.95
61478;BME280;47345;52.334;10.392;2024-03-08T12:32:57;100933.52;;;9.03;52.68
61478;BME280;47345;52.334;10.392;2024-03-08T12:35:29;100923.50;;;9.04;52.83
61478;BME280;47345;52.334;10.392;2024-03-08T12:38:01;100929.21;;;9.08;53.28
61478;BME280;47345;52.334;10.392;2024-03-08T12:40:32;100924.88;;;9.15;53.52
61478;BME280;47345;52.334;10.392;2024-03-08T12:43:04;100925.34;;;9.19;53.04
61478;BME280;47345;52.334;10.392;2024-03-08T12:45:35;100918.50;;;9.22;52.95
61478;BME280;47345;52.334;10.392;2024-03-08T12:48:13;100920.15;;;9.31;53.54
61478;BME280;47345;52.334;10.392;2024-03-08T12:50:44;100912.31;;;9.38;53.10
61478;BME280;47345;52.334;10.392;2024-03-08T12:53:17;100910.31;;;9.40;52.55
61478;BME280;47345;52.334;10.392;2024-03-08T12:55:47;100908.69;;;9.41;52.70
61478;BME280;47345;52.334;10.392;2024-03-08T12:58:18;100905.84;;;9.48;53.12
61478;BME280;47345;52.334;10.392;2024-03-08T13:00:50;100900.64;;;9.53;52.45
61478;BME280;47345;52.334;10.392;2024-03-08T13:03:22;100896.70;;;9.55;52.10
61478;BME280;47345;52.334;10.392;2024-03-08T13:05:53;100893.08;;;9.58;51.94
61478;BME280;47345;52.334;10.392;2024-03-08T13:08:26;100888.43;;;9.60;51.98
61478;BME280;47345;52.334;10.392;2024-03-08T13:10:58;100888.02;;;9.62;51.95